x

Buoy B01 - Western Maine Shelf (44030) Wave Buoy

8:04am - Wed 28th Sep 2016 All times are EDT. -4 hours from GMT.

  • Sig Wave height 5.2ft
  • Peak Period 5s
  • Wind
    20mph, 27mph gusts
  • Sea Temp 60°f
  • Air Temp 56°f
  • Sea Pressure 1023.1mb
  • Buoy B01 - Western Maine Shelf
  • Buoy B01 - Western Maine Shelf

More Historic Weather Station data

Upgrade to MSW Pro to gain access to the past 30 days of data for over 8000 Wavebouys and Weather Stations around the globe.

Join Pro

Comparision Forecast

View Surf forecast
   
Wed 09/28 8:04am 5ft 5s 20 27 mph 1023.1mb 60f 56f
7:04am 5ft 5s 18 22 mph 1022.3mb 60f 57f
6:04am 4.5ft 5s 18 22 mph 1021.5mb 60f 57f
5:04am 4.5ft 5s 20 25 mph 1021mb 59f 57f
4:04am 4ft 4s 18 22 mph 1020.4mb 59f 58f
3:04am 4ft 8s 16 20 mph 1019.9mb 59f 58f
2:04am 4ft 11s 16 18 mph 1019.3mb 59f 59f
1:04am 2.5ft 6s 13 18 mph 1018.4mb 59f 60f
12:04am 1.3ft 4s 11 13 mph 1017.5mb 58f 60f
Tue 09/27 11:04pm 2ft 5s 11 13 mph 1016.8mb 58f 60f
10:04pm 2.5ft 5s 11
mph
1015.9mb 58f 60f
9:04pm 2ft 5s 11 13 mph 1015.1mb 58f 60f
8:04pm 2ft 5s 9 11 mph 1014.4mb 59f 60f
7:04pm 1.3ft 5s 9 11 mph 1013.4mb 60f 60f
6:04pm 2ft 11s 7 9 mph 1013mb 61f 62f
5:04pm 2ft 5s 7
mph
1013mb 61f 61f
4:04pm 1.6ft 5s 4 7 mph 1012.5mb 61f 62f
3:04pm 2.5ft 5s 7
mph
1012.2mb 61f 61f
2:04pm 2ft 5s 2
mph
1011.8mb 61f 61f
1:04pm 2ft 5s 2
mph
1011.9mb 60f 62f
12:04pm 2.5ft 5s 2 4 mph 1012.1mb 60f 60f
11:04am 2.5ft 5s 2 4 mph 1012mb 60f 60f
10:04am 2.5ft 5s 4
mph
1012.1mb 60f 58f
9:04am 2.5ft 5s 4 7 mph 1012mb 59f 58f
8:04am 2.5ft 5s 9 11 mph 1012.5mb 59f 58f
7:04am 2.5ft 5s 9 11 mph 1012.7mb 59f 58f
6:04am 3ft 5s 11 13 mph 1012.8mb 59f 59f
5:04am 3.5ft 4s 13 16 mph 1012.7mb 59f 61f
4:04am 3.5ft 5s 16 18 mph 1013.3mb 60f 61f
3:04am 3.5ft 5s 16 18 mph 1013.8mb 59f 60f
2:04am 3.5ft 5s 13 18 mph 1014.9mb 59f 60f
1:04am 3ft 4s 13 18 mph 1015.4mb 59f 60f
12:04am 3.5ft 5s 16 20 mph 1016.2mb 59f 60f
Mon 09/26 11:04pm 3.5ft 5s 20 22 mph 1016.6mb 59f 60f
10:04pm 3.5ft 5s 16 20 mph 1016.9mb 59f 60f
9:04pm 3ft 4s 18 20 mph 1017.3mb 59f 59f
8:04pm 2.5ft 4s 18 22 mph 1017.7mb 59f 59f
7:04pm 2.5ft 3s 18 20 mph 1018.2mb 60f 58f
6:04pm 1.3ft 3s 13 16 mph 1018.5mb 60f 58f
5:04pm 1.3ft 2s 16 18 mph 1018.8mb 61f 58f
4:04pm  -   -  16 18 mph 1019.6mb 61f 57f
3:04pm 0.7ft  -  11 13 mph 1020.3mb 61f 57f
2:04pm 1.3ft 11s 11
mph
1020.6mb 61f 56f
1:04pm 1.3ft 11s 7 9 mph 1021.5mb 61f 56f
12:04pm 1ft 11s 4
mph
1022mb 61f 56f
11:04am 0.7ft  -  4
mph
1022.6mb 60f 56f
10:04am 1.3ft 11s 4 7 mph 1022.8mb 59f 55f
9:04am 1ft 2s 11
mph
1022.6mb 59f 53f
8:04am 1ft 2s 11
mph
1022.8mb 58f 51f
7:04am 1ft 3s 9 11 mph 1022.6mb 58f 52f
6:04am 1.3ft 3s 11 13 mph 1022.1mb 59f 51f
5:04am 1.3ft 3s 11 13 mph 1021.8mb 60f 52f
4:04am 1.3ft 4s 11 13 mph 1021.5mb 60f 53f
3:04am 1.3ft 4s 11 13 mph 1022mb 60f 53f
2:04am 1.6ft 4s 11 13 mph 1022.5mb 60f 53f
1:04am  -   -  13 16 mph 1022.2mb 60f 56f
12:04am 3.5ft 11s 18 22 mph 1022mb 60f 56f
Sun 09/25 11:04pm 2.5ft 4s 20 22 mph 1021.7mb 59f 56f
10:04pm 2.5ft 4s 20 25 mph 1021.5mb 59f 57f
9:04pm 2.5ft 4s 20 22 mph 1020.9mb 59f 58f
8:04pm 2.5ft 4s 16 18 mph 1020.3mb 59f 58f
7:04pm 2.5ft 3s 16 18 mph 1019.4mb 59f 59f
6:04pm 1.6ft 3s 13 18 mph 1018.5mb 59f 61f
5:04pm 1.6ft 3s 13 16 mph 1017.8mb 60f 61f
4:04pm 1.3ft 4s 13 20 mph 1017.6mb 60f 61f
3:04pm  -   -  4 7 mph 1017.9mb 60f 60f
2:04pm  -   -  2 4 mph 1018.1mb 60f 59f
1:04pm 2.5ft 11s 9 11 mph 1018.7mb 59f 57f
12:04pm 1.3ft 3s 11 16 mph 1018.8mb 59f 56f
11:04am 1.3ft 3s 13 16 mph 1019.1mb 59f 55f
10:04am 1.6ft 3s 16 18 mph 1019.1mb 59f 53f
9:04am 1.6ft 3s 18 20 mph 1019.3mb 59f 52f
8:04am 1.6ft 3s 13 16 mph 1019.4mb 59f 51f
7:04am 2ft 3s 16 18 mph 1019.4mb 59f 50f
6:04am 2ft 3s 16 20 mph 1018.9mb 59f 51f
5:04am 2.5ft 4s 16 18 mph 1018.7mb 59f 52f
4:04am 2.5ft 3s 18 22 mph 1018.5mb 59f 53f
3:04am 2ft 3s 16 20 mph 1018.8mb 58f 53f
2:04am 2.5ft 3s 18 22 mph 1018.8mb 59f 55f
1:04am 2.5ft 3s 25 31 mph 1018.2mb 59f 56f
12:04am  -   -  18 22 mph 1018.3mb 59f 56f
Sat 09/24 11:04pm  -   -  18 20 mph 1018.2mb 58f 57f
10:04pm 1.3ft 2s 13 16 mph 1018mb 57f 57f
9:04pm 1.6ft 5s 13 16 mph 1017.9mb 58f 58f
8:04pm 1.6ft 5s 13 16 mph 1017.7mb 58f 59f
7:04pm 2ft 5s 13 16 mph 1017.7mb 58f 60f
6:04pm  -   -  13 16 mph 1017.1mb 59f 61f
5:04pm 3.5ft 11s 11 13 mph 1016.7mb 60f 62f
4:04pm 2ft 5s 7
mph
1017.1mb 61f 61f
3:04pm 2.5ft 11s 4 7 mph 1017.4mb 61f 60f
2:04pm 2.5ft 11s 2
mph
1017.9mb 61f 62f